GMMXGMMN

Guest
Details From GMMX - MENARA
To GMMN - Casablanca Mohammed V Intl
Flight Number -
Tags generated
Created
Modified
Stats Distance 109 nm / 201 km
Max Altitude 9,900 ft / 3,018 m
Waypoints 3
Social Downloads 35
Likes 0
Share VATSIM

Download

Looking for another format? Having issues loading an existing format? Contact us
Advertisement - Login to hide

Notes

Basic altitude profile: - Ascent Rate: 2500ft/min - Ascent Speed: 250kts - Cruise Altitude: 40000ft - Cruise Speed: 280kts - Descent Rate: 1500ft/min - Descent Speed: 250kts

Route

GMMX BIBAD GMMN

ID Type Via Altitude Latitude Longitude Leg Dist Tot Dist Heading (true) Name
O GMMX APT - 0 ft / 0 m 31.60692˚ -8.03627˚ - 0 nm - MENARA
BIBAD FIX - 9,900 ft / 3,018 m 32.85472˚ -7.62056˚ 77 nm 77 nm 16° / 16° -
O GMMN APT - 0 ft / 0 m 33.36747˚ -7.58996˚ 30 nm 108 nm 3° / 3° Casablanca Mohammed V Intl

Altitude Profile

Advertisement - Login to hide

GMMX

Details ICAO GMMX (RAK)
Name MENARA
Region Morocco
Timezone Africa/Casablanca (UTC+0.0)
Stats Elevation 1,545 ft / 471 m (AMSL)
Location 31.606920° -8.036265°
Runways 1
Magnetic Variation 1.999° W

METAR

GMMX 141330Z 00000KT CAVOK 19/05 Q1023 NOSIG

Decode

TAF

TAF TAF GMMX 141100Z 1412/1518 04006KT CAVOK

Decode

Departure Runways

ID Width Length Bearing (true) Bearing (mag) Surface Threshold Offset Overrun Length
10 148 ft / 45 m 10,169 ft / 3,100 m 95.99° 97.99° Asphalt 918 ft / 280 m 0 ft / 0 m
28 148 ft / 45 m 10,169 ft / 3,100 m 276.00° 278.00° Asphalt 0 ft / 0 m 0 ft / 0 m

GMMN

Details ICAO GMMN (CMN)
Name Casablanca Mohammed V Intl
Region Morocco
Timezone Africa/Casablanca (UTC+0.0)
Stats Elevation 656 ft / 200 m (AMSL)
Location 33.367466° -7.589964°
Runways 2
Magnetic Variation 1.817° W

METAR

GMMN 141330Z 04006KT 330V100 CAVOK 17/07 Q1026 NOSIG

Decode

TAF

TAF TAF GMMN 141100Z 1412/1518 04012KT CAVOK BECMG 1420/1422 34004KT PROB30 TEMPO 1500/1506 3000 BR SCT010

Decode

Destination Runways

ID Width Length Bearing (true) Bearing (mag) Surface Threshold Offset Overrun Length
17L 148 ft / 45 m 12,224 ft / 3,726 m 164.03° 165.85° Asphalt 0 ft / 0 m 295 ft / 90 m
17R 148 ft / 45 m 12,196 ft / 3,717 m 164.03° 165.85° Asphalt 0 ft / 0 m 197 ft / 60 m
35L 148 ft / 45 m 12,196 ft / 3,717 m 344.04° 345.86° Asphalt 0 ft / 0 m 180 ft / 55 m
35R 148 ft / 45 m 12,224 ft / 3,726 m 344.04° 345.86° Asphalt 0 ft / 0 m 995 ft / 303 m

Approach Navaids

Runway Type Ident Frequency Range Bearing (true) Bearing (mag) Slope Elevation
35L Localiser INL 110.70 MHz 18 nm / 33 km 344.03° 345.85° - 656 ft / 200 m (AMSL)
35L Glidescope INL 110.70 MHz 10 nm / 19 km 344.03° 345.85° 3.00° 656 ft / 200 m (AMSL)
35L DME INL 110.70 MHz 18 nm / 33 km - - - 656 ft / 200 m (AMSL)
35R Localiser INR 109.90 MHz 18 nm / 33 km 344.04° 345.85° - 656 ft / 200 m (AMSL)
35R Glidescope INR 109.90 MHz 10 nm / 19 km 344.04° 345.85° 2.70° 656 ft / 200 m (AMSL)

Popular Alternatives